Latest Weather Observations for Mareeba

IDQ60801

Issued at 8:05 pm EST Friday 29 August 2014 (issued every 30 minutes, with the page automatically refreshed every 10 minutes)

About weather observations | Map of weather stations | Latest weather observations for QLD | Other Formats
Station Details ID: 031210 Name: MAREEBA AIRPORT Lat: -17.07 Lon: 145.43 Height: 471.93 m
Data from the previous 72 hours. | See also: Recent months at Mareeba
Date/Time
EST
Temp
°C
App
Temp
°C
Dew
Point
Rel
Hum
%
Delta-T
°C
Wind Press
QNH
hPa
Press
MSL
hPa
Rain
since 9 am
mm
Dir
 
Spd
km/h
Gust
km/h
Spd
kts
Gust
kts
29/08:00pm 16.7 15.4 12.5 76 2.4 SSE 11 15 6 8 1019.3 - 0.0
29/07:30pm 17.2 15.7 11.9 71 3.0 SSE 11 15 6 8 1019.0 - 0.0
29/07:00pm 18.3 15.4 11.1 63 4.0 ESE 17 22 9 12 1018.8 - 0.0
29/06:30pm 19.0 16.0 10.6 58 4.6 ESE 17 24 9 13 1018.6 - 0.0
29/06:00pm 20.2 17.2 10.6 54 5.3 ESE 17 22 9 12 1018.2 1016.3 0.0
29/05:30pm 20.3 17.7 10.7 54 5.3 ESE 15 20 8 11 1017.8 - 0.0
29/05:00pm 21.6 19.0 10.7 50 6.1 E 15 22 8 12 1017.4 - 0.0
29/04:30pm 21.8 17.2 9.7 46 6.7 ESE 24 35 13 19 1017.2 - 0.0
29/04:00pm 22.3 18.5 9.8 45 6.9 ESE 20 30 11 16 1017.0 - 0.0
29/03:30pm 23.7 20.3 10.7 44 7.4 SE 19 28 10 15 1016.9 - 0.0
29/03:00pm 23.0 19.1 9.4 42 7.5 SE 20 33 11 18 1016.9 1015.0 0.0
29/02:30pm 23.8 19.9 9.4 40 8.0 ESE 20 32 11 17 1016.9 - 0.0
29/02:00pm 23.8 20.6 11.2 45 7.2 SE 19 33 10 18 1017.0 - 0.0
29/01:30pm 23.5 19.5 10.6 44 7.3 SE 22 32 12 17 1017.3 - 0.0
29/01:00pm 23.5 19.8 10.2 43 7.5 ESE 20 30 11 16 1017.8 - 0.0
29/12:30pm 23.4 18.8 9.8 42 7.6 SSE 24 32 13 17 1018.3 - 0.0
29/12:00pm 23.3 18.5 10.4 44 7.2 SE 26 33 14 18 1018.7 1016.8 0.0
29/11:30am 22.8 18.5 10.6 46 6.9 SE 24 32 13 17 1019.1 - 0.0
29/11:00am 22.9 19.4 11.0 47 6.8 ESE 20 32 11 17 1019.4 - 0.0
29/10:30am 22.7 19.4 10.8 47 6.7 SE 19 30 10 16 1019.6 - 0.0
29/10:00am 21.3 16.6 10.5 50 6.0 SE 26 35 14 19 1019.9 - 0.0
29/09:30am 20.8 16.5 10.6 52 5.7 SE 24 37 13 20 1019.7 - 0.0
29/09:00am 20.1 16.4 11.6 58 4.8 ESE 22 30 12 16 1019.7 1017.9 0.0
29/08:30am 17.7 14.0 11.5 67 3.5 SSE 22 30 12 16 1019.5 - 0.0
29/08:00am 16.2 12.9 10.9 71 2.9 SSE 19 28 10 15 1019.3 - 0.0
29/07:30am 14.6 11.5 10.2 75 2.4 SSE 17 22 9 12 1019.3 - 0.0
29/07:00am 13.4 9.6 9.8 79 1.9 SSE 20 28 11 15 1019.4 - 0.0
29/06:30am 13.1 8.9 9.7 80 1.8 SSE 22 30 12 16 1019.2 - 0.0
29/06:00am 12.5 9.1 9.1 80 1.8 SSE 17 24 9 13 1018.9 1017.0 0.0
29/05:30am 12.4 9.4 9.2 81 1.7 SSE 15 22 8 12 1018.8 - 0.0
29/05:00am 11.6 9.0 7.7 77 1.9 E 11 15 6 8 1018.5 - 0.0
29/04:30am 11.8 9.6 7.7 76 2.0 E 9 15 5 8 1018.4 - 0.0
29/04:00am 12.1 9.7 7.2 72 2.4 E 9 13 5 7 1018.4 - 0.0
29/03:30am 12.0 8.5 7.1 72 2.4 ESE 15 19 8 10 1018.5 - 0.0
29/03:00am 12.1 8.8 8.2 77 2.0 SE 15 22 8 12 1018.6 1016.7 0.0
29/02:30am 10.3 8.9 7.4 82 1.4 ESE 4 9 2 5 1018.6 - 0.0
29/02:00am 9.8 8.9 6.2 78 1.7 CALM 0 0 0 0 1018.7 - 0.0
29/01:30am 12.6 10.6 7.1 69 2.7 ESE 7 9 4 5 1018.9 - 0.0
29/01:00am 12.9 10.2 7.4 69 2.7 SE 11 17 6 9 1019.0 - 0.0
29/12:30am 13.4 9.3 7.8 69 2.8 SE 19 22 10 12 1019.2 - 0.0
29/12:00am 13.3 9.5 7.5 68 2.9 SSE 17 22 9 12 1019.6 1017.8 0.0
 
Date/Time
EST
Temp
°C
App
Temp
°C
Dew
Point
Rel
Hum
%
Delta-T
°C
Wind Press
QNH
hPa
Press
MSL
hPa
Rain
since 9 am
mm
Dir
 
Spd
km/h
Gust
km/h
Spd
kts
Gust
kts
28/11:30pm 13.7 9.9 7.5 66 3.1 SE 17 20 9 11 1019.7 - 0.0
28/11:00pm 14.4 11.3 7.2 62 3.6 ESE 13 19 7 10 1019.6 - 0.0
28/10:30pm 14.7 11.0 6.5 58 4.1 SE 15 20 8 11 1019.4 - 0.0
28/10:00pm 14.8 11.2 6.9 59 4.0 S 15 20 8 11 1019.4 - 0.0
28/09:30pm 14.7 11.2 7.0 60 3.9 S 15 19 8 10 1019.5 - 0.0
28/09:00pm 15.3 11.8 7.1 58 4.1 SSE 15 20 8 11 1019.6 1017.8 0.0
28/08:30pm 15.7 12.5 6.7 55 4.5 SSE 13 17 7 9 1019.4 - 0.0
28/08:00pm 16.7 12.7 6.5 51 5.1 SSE 17 22 9 12 1019.2 - 0.0
28/07:30pm 17.4 13.0 6.6 49 5.5 SSE 19 26 10 14 1018.7 - 0.0
28/07:00pm 18.0 13.5 6.2 46 6.0 SE 19 24 10 13 1018.4 - 0.0
28/06:30pm 18.8 15.0 5.6 42 6.6 SE 15 20 8 11 1018.0 - 0.0
28/06:00pm 20.4 16.6 4.0 34 8.1 SSE 13 19 7 10 1017.6 1015.7 0.0
28/05:30pm 22.3 18.0 3.4 29 9.3 SSE 15 20 8 11 1017.1 - 0.0
28/05:00pm 23.7 19.4 3.1 26 10.2 SSE 15 20 8 11 1016.5 - 0.0
28/04:30pm 24.5 19.3 2.6 24 10.8 SSE 19 28 10 15 1016.3 - 0.0
28/04:00pm 25.2 20.7 2.0 22 11.4 SSE 15 22 8 12 1016.0 - 0.0
28/03:30pm 25.2 20.4 2.6 23 11.2 SE 17 22 9 12 1016.0 - 0.0
28/03:00pm 24.9 20.3 1.7 22 11.3 SE 15 28 8 15 1016.1 1014.2 0.0
28/02:30pm 25.0 20.7 1.2 21 11.5 S 13 24 7 13 1016.4 - 0.0
28/02:00pm 25.3 20.0 2.1 22 11.4 SSE 19 28 10 15 1016.9 - 0.0
28/01:30pm 25.7 21.0 3.0 23 11.4 SSE 17 28 9 15 1017.2 - 0.0
28/01:00pm 24.8 21.1 2.3 23 11.0 ESE 11 24 6 13 1017.4 - 0.0
28/12:30pm 24.2 19.4 2.4 24 10.7 ESE 17 26 9 14 1017.9 - 0.0
28/12:00pm 23.8 18.4 1.4 23 10.7 SE 19 32 10 17 1018.3 1016.4 0.0
28/11:30am 23.6 17.2 0.7 22 10.8 SSE 24 33 13 18 1018.7 - 0.0
28/11:00am 23.1 16.7 0.9 23 10.5 SE 24 33 13 18 1019.2 - 0.0
28/10:30am 22.0 15.9 2.7 28 9.4 SE 24 35 13 19 1019.3 - 0.0
28/10:00am 21.0 14.7 1.3 27 9.2 SE 24 35 13 19 1019.6 - 0.0
28/09:30am 20.4 14.4 3.2 32 8.3 SSE 24 33 13 18 1019.7 - 0.0
28/09:00am 19.1 14.0 4.1 37 7.3 SSE 20 28 11 15 1019.5 1017.7 0.0
28/08:30am 18.1 13.7 5.0 42 6.5 SSE 17 20 9 11 1019.4 - 0.0
28/08:00am 16.1 11.9 3.9 44 5.8 SSE 15 20 8 11 1019.2 - 0.0
28/07:30am 13.6 11.4 6.2 61 3.6 SE 7 11 4 6 1018.9 - 0.0
28/07:00am 10.6 8.3 4.9 68 2.7 SSE 6 9 3 5 1018.7 - 0.0
28/06:30am 10.9 7.1 5.7 70 2.5 SSE 15 19 8 10 1018.6 - 0.0
28/06:00am 10.1 7.2 6.3 77 1.8 SSE 11 15 6 8 1018.3 1016.4 0.0
28/05:30am 9.7 7.4 5.9 77 1.8 ESE 7 9 4 5 1018.0 - 0.0
28/05:00am 10.8 8.3 6.6 75 2.0 SE 9 11 5 6 1017.7 - 0.0
28/04:30am 11.1 8.3 6.8 75 2.1 SE 11 15 6 8 1017.6 - 0.0
28/04:00am 11.3 9.0 7.4 77 1.9 SE 9 13 5 7 1017.4 - 0.0
28/03:30am 10.6 7.7 6.6 76 1.9 SSE 11 15 6 8 1017.6 - 0.0
28/03:00am 11.0 7.8 6.9 76 2.0 SSE 13 17 7 9 1017.8 1015.9 0.0
28/02:30am 10.7 9.3 7.2 79 1.7 SE 4 9 2 5 1017.9 - 0.0
28/02:00am 11.2 9.0 7.7 79 1.7 SSE 9 13 5 7 1018.0 - 0.0
28/01:30am 11.9 9.9 8.7 81 1.6 SE 9 13 5 7 1018.2 - 0.0
28/01:00am 12.1 10.5 8.6 79 1.8 SE 7 9 4 5 1018.3 - 0.0
28/12:30am 12.4 10.4 8.7 78 1.9 SE 9 11 5 6 1018.4 - 0.0
28/12:00am 12.2 10.7 9.0 81 1.6 SE 7 11 4 6 1018.4 1016.5 0.0
 
Date/Time
EST
Temp
°C
App
Temp
°C
Dew
Point
Rel
Hum
%
Delta-T
°C
Wind Press
QNH
hPa
Press
MSL
hPa
Rain
since 9 am
mm
Dir
 
Spd
km/h
Gust
km/h
Spd
kts
Gust
kts
27/11:30pm 12.1 10.8 9.1 82 1.5 E 6 15 3 8 1018.5 - 0.0
27/11:00pm 12.3 11.0 9.3 82 1.6 SE 6 9 3 5 1018.4 - 0.0
27/10:30pm 12.2 11.2 8.7 79 1.8 E 4 7 2 4 1018.5 - 0.0
27/10:00pm 13.9 12.7 9.7 76 2.2 ESE 6 9 3 5 1018.7 - 0.0
27/09:30pm 14.1 12.8 10.1 77 2.1 SW 7 9 4 5 1018.4 - 0.0
27/09:00pm 14.3 13.4 10.7 79 1.9 W 6 7 3 4 1018.3 1016.4 0.0
27/08:30pm 13.9 12.6 9.9 77 2.1 SW 7 9 4 5 1018.1 - 0.0
27/08:00pm 14.9 13.7 10.3 74 2.5 W 7 9 4 5 1017.8 - 0.0
27/07:30pm 15.6 14.6 10.4 71 2.8 W 6 9 3 5 1017.4 - 0.0
27/07:00pm 17.3 16.5 9.7 61 4.1 NW 4 7 2 4 1017.0 - 0.0
27/06:30pm 19.1 18.0 10.1 56 4.9 NNW 6 9 3 5 1016.6 - 0.0
27/06:00pm 20.7 19.6 10.5 52 5.7 N 7 11 4 6 1016.2 1014.3 0.0
27/05:30pm 21.8 19.2 10.6 49 6.3 N 15 24 8 13 1015.7 - 0.0
27/05:00pm 23.0 20.9 11.1 47 6.8 N 13 24 7 13 1015.4 - 0.0
27/04:30pm 23.8 20.8 10.5 43 7.5 NNE 17 26 9 14 1014.9 - 0.0
27/04:00pm 25.3 22.4 9.6 37 8.8 NNE 15 24 8 13 1014.6 - 0.0
27/03:30pm 26.3 23.5 6.9 29 10.4 ENE 11 20 6 11 1014.3 - 0.0
27/03:00pm 26.2 23.1 5.7 27 10.8 N 11 17 6 9 1014.4 1012.5 0.0
27/02:30pm 26.3 23.9 5.3 26 11.0 N 7 15 4 8 1014.8 - 0.0
27/02:00pm 26.2 22.7 3.4 23 11.5 ESE 11 19 6 10 1015.4 - 0.0
27/01:30pm 26.4 21.5 4.2 24 11.4 S 19 24 10 13 1015.8 - 0.0
27/01:00pm 25.5 22.5 2.2 22 11.5 SE 7 17 4 9 1016.3 - 0.0
27/12:30pm 24.9 20.6 3.0 24 10.9 E 15 24 8 13 1016.9 - 0.0
27/12:00pm 24.4 20.6 5.7 30 9.7 E 15 26 8 14 1017.6 1015.7 0.0
27/11:30am 24.4 20.0 6.6 32 9.4 S 19 26 10 14 1018.0 - 0.0
27/11:00am 23.0 17.9 5.9 33 8.9 SSE 22 32 12 17 1018.2 - 0.0
27/10:30am 23.1 17.0 4.6 30 9.4 SSE 26 35 14 19 1018.6 - 0.0
27/10:00am 21.8 20.3 9.3 45 6.8 E 7 17 4 9 1018.9 - 0.0
27/09:30am 19.8 18.2 10.2 54 5.3 SE 9 17 5 9 1019.2 - 0.0
27/09:00am 18.3 15.1 9.9 58 4.6 SE 17 20 9 11 1019.2 1017.4 0.0
27/08:30am 17.1 13.5 8.5 57 4.5 SSE 17 22 9 12 1019.0 - 0.0
27/08:00am 15.8 12.9 8.3 61 3.9 SE 13 17 7 9 1018.8 - 0.0
27/07:30am 13.8 11.2 7.6 66 3.1 SSE 11 17 6 9 1018.5 - 0.0
27/07:00am 11.9 9.0 8.2 78 1.9 SSE 13 17 7 9 1018.1 - 0.0
27/06:30am 9.4 6.3 7.3 87 1.0 SE 13 15 7 8 1017.6 - 0.0
27/06:00am 9.4 7.4 7.2 86 1.1 SE 7 9 4 5 1017.3 1015.4 0.0
27/05:30am 9.4 8.7 7.0 85 1.2 CALM 0 0 0 0 1017.1 - 0.0
27/05:00am 10.8 9.4 7.1 78 1.8 ESE 4 9 2 5 1016.9 - 0.0
27/04:30am 11.9 8.5 7.8 76 2.1 SSE 15 17 8 9 1016.9 - 0.0
27/04:00am 12.1 9.1 7.8 75 2.2 SE 13 19 7 10 1017.0 - 0.0
27/03:30am 11.6 9.2 8.5 81 1.6 SE 11 15 6 8 1017.0 - 0.0
27/03:00am 11.2 8.2 7.7 79 1.7 S 13 17 7 9 1017.1 1015.2 0.0
27/02:30am 12.1 9.3 8.4 78 1.9 SSE 13 17 7 9 1017.2 - 0.0
27/02:00am 12.4 9.7 9.1 80 1.7 SSE 13 17 7 9 1017.6 - 0.0
27/01:30am 12.0 9.3 9.0 82 1.5 SSE 13 17 7 9 1017.7 - 0.0
27/01:00am 12.1 9.4 8.9 81 1.6 SE 13 17 7 9 1017.9 - 0.0
27/12:30am 12.5 9.5 9.3 81 1.7 SE 15 17 8 9 1018.1 - 0.0
27/12:00am 13.1 10.6 9.7 80 1.8 SSE 13 19 7 10 1018.4 1016.5 0.0
 
Date/Time
EST
Temp
°C
App
Temp
°C
Dew
Point
Rel
Hum
%
Delta-T
°C
Wind Press
QNH
hPa
Press
MSL
hPa
Rain
since 9 am
mm
Dir
 
Spd
km/h
Gust
km/h
Spd
kts
Gust
kts
26/11:30pm 13.5 11.4 9.7 78 2.0 SE 11 15 6 8 1018.5 - 0.0
26/11:00pm 13.5 11.3 9.2 75 2.2 SE 11 15 6 8 1018.5 - 0.0
26/10:30pm 14.4 13.1 9.2 71 2.7 E 6 13 3 7 1018.5 - 0.0
26/10:00pm 15.0 12.5 9.8 71 2.8 SE 13 19 7 10 1018.5 - 0.0
26/09:30pm 14.8 13.0 9.4 70 2.8 SSE 9 13 5 7 1018.4 - 0.0
26/09:00pm 15.2 13.7 9.1 67 3.2 S 7 11 4 6 1018.4 1016.5 0.0
26/08:30pm 15.2 13.7 9.1 67 3.2 SE 7 15 4 8 1018.1 - 0.0

Other Formats:

Comma delimited format used in spreadsheet applications
http://www.bom.gov.au/fwo/IDQ60801/IDQ60801.95286.axf

JavaScript Object Notation format (JSON) in row-major order
http://www.bom.gov.au/fwo/IDQ60801/IDQ60801.95286.json